createdAt,value
2022-09-15T00:01:10.300Z,55.24
2022-09-15T00:03:44.700Z,55.31
2022-09-15T00:06:12.990Z,55.35
2022-09-15T00:08:41.258Z,55.35
2022-09-15T00:11:15.847Z,55.32
2022-09-15T00:13:44.136Z,55.25
2022-09-15T00:16:15.244Z,55.10
2022-09-15T00:18:44.001Z,54.89
2022-09-15T00:21:13.902Z,54.86
2022-09-15T00:23:41.809Z,54.77
2022-09-15T00:26:10.972Z,54.65
2022-09-15T00:28:39.469Z,54.54
2022-09-15T00:31:09.384Z,54.42
2022-09-15T00:33:37.940Z,54.27
2022-09-15T00:36:07.263Z,54.01
2022-09-15T00:38:36.137Z,53.90
2022-09-15T00:41:04.637Z,53.78
2022-09-15T00:43:51.125Z,53.71
2022-09-15T00:46:21.638Z,54.11
2022-09-15T00:48:55.860Z,53.94
2022-09-15T00:51:27.553Z,53.81
2022-09-15T00:53:57.519Z,53.68
2022-09-15T00:56:26.143Z,53.82
2022-09-15T00:58:57.535Z,53.87
2022-09-15T01:01:26.163Z,53.88
2022-09-15T01:03:54.487Z,53.86
2022-09-15T01:06:42.531Z,53.75
2022-09-15T01:09:22.448Z,53.85
2022-09-15T01:11:50.390Z,53.99
2022-09-15T01:14:18.827Z,54.00
2022-09-15T01:16:55.831Z,53.91
2022-09-15T01:19:32.448Z,53.84
2022-09-15T01:22:00.296Z,53.83
2022-09-15T01:24:28.181Z,53.73
2022-09-15T01:27:30.901Z,53.52
2022-09-15T01:30:11.583Z,53.37
2022-09-15T01:33:04.478Z,53.17
2022-09-15T01:35:52.529Z,52.88
2022-09-15T01:38:23.864Z,52.54
2022-09-15T01:40:57.690Z,52.25
2022-09-15T01:43:26.503Z,52.32
2022-09-15T01:45:54.324Z,52.23
2022-09-15T01:48:24.634Z,52.08
2022-09-15T01:50:54.821Z,52.24
2022-09-15T01:53:23.803Z,52.28
2022-09-15T01:55:58.869Z,52.28
2022-09-15T01:58:27.414Z,52.36
2022-09-15T02:01:01.245Z,52.42
2022-09-15T02:03:33.728Z,52.43
2022-09-15T02:06:04.661Z,52.46
2022-09-15T02:08:40.326Z,52.45
2022-09-15T02:11:19.234Z,52.66
2022-09-15T02:13:48.773Z,52.72
2022-09-15T02:16:21.564Z,52.80
2022-09-15T02:19:01.674Z,52.81
2022-09-15T02:21:44.699Z,52.98
2022-09-15T02:24:16.528Z,52.89
2022-09-15T02:26:46.364Z,52.98
2022-09-15T02:29:17.489Z,53.04
2022-09-15T02:31:46.393Z,52.90
2022-09-15T02:34:20.791Z,52.94
2022-09-15T02:36:50.053Z,52.86
2022-09-15T02:39:19.793Z,53.00
2022-09-15T02:41:49.066Z,53.10
2022-09-15T02:44:16.876Z,53.14
2022-09-15T02:46:44.902Z,53.25
2022-09-15T02:49:13.294Z,53.16
2022-09-15T02:51:41.002Z,53.26
2022-09-15T02:54:09.098Z,53.27
2022-09-15T02:56:37.285Z,53.40
2022-09-15T02:59:05.017Z,53.41
2022-09-15T03:01:35.040Z,53.34
2022-09-15T03:04:03.955Z,53.44
2022-09-15T03:06:35.071Z,53.54
2022-09-15T03:09:07.731Z,53.45
2022-09-15T03:11:36.479Z,53.50
2022-09-15T03:14:06.192Z,53.57
2022-09-15T03:16:34.999Z,53.47
2022-09-15T03:19:03.320Z,53.32
2022-09-15T03:21:31.843Z,53.29
2022-09-15T03:23:59.899Z,53.17
2022-09-15T03:26:28.030Z,53.26
2022-09-15T03:28:56.051Z,53.00
2022-09-15T03:31:23.896Z,53.09
2022-09-15T03:33:56.429Z,53.09
2022-09-15T03:36:24.285Z,53.01
2022-09-15T03:38:52.711Z,52.99
2022-09-15T03:41:20.655Z,53.07
2022-09-15T03:43:48.795Z,53.08
2022-09-15T03:46:16.607Z,52.94
2022-09-15T03:48:44.861Z,53.06
2022-09-15T03:51:13.316Z,52.91
2022-09-15T03:53:42.069Z,53.07
2022-09-15T03:56:22.850Z,53.34
2022-09-15T03:58:51.062Z,53.41
2022-09-15T04:01:19.972Z,53.54
2022-09-15T04:03:51.064Z,53.53
2022-09-15T04:06:20.166Z,53.53
2022-09-15T04:08:48.807Z,53.54
2022-09-15T04:11:17.776Z,53.60
2022-09-15T04:13:46.221Z,53.68
2022-09-15T04:16:16.209Z,53.78
2022-09-15T04:18:44.267Z,53.85
2022-09-15T04:21:14.065Z,53.85
2022-09-15T04:23:42.738Z,54.03
2022-09-15T04:26:16.686Z,54.14
2022-09-15T04:28:44.485Z,54.30
2022-09-15T04:31:14.033Z,54.42
2022-09-15T04:33:42.666Z,54.52
2022-09-15T04:36:12.368Z,54.49
2022-09-15T04:38:40.676Z,54.97
2022-09-15T04:41:09.165Z,55.52
2022-09-15T04:43:36.847Z,55.65
2022-09-15T04:46:04.822Z,55.91
2022-09-15T04:48:32.906Z,55.99
2022-09-15T04:51:01.953Z,56.01
2022-09-15T04:53:30.151Z,56.07
2022-09-15T04:56:05.669Z,56.19
2022-09-15T04:58:47.396Z,56.28
2022-09-15T05:01:16.869Z,56.42
2022-09-15T05:03:46.651Z,56.29
2022-09-15T05:06:16.104Z,56.53
2022-09-15T05:08:47.077Z,56.29
2022-09-15T05:11:15.444Z,56.42
2022-09-15T05:13:44.381Z,56.64
2022-09-15T05:16:13.635Z,56.76
2022-09-15T05:18:42.512Z,56.70
2022-09-15T05:21:11.595Z,56.69
2022-09-15T05:23:39.877Z,56.92
2022-09-15T05:26:08.832Z,56.93
2022-09-15T05:28:37.358Z,57.18
2022-09-15T05:31:09.378Z,57.10
2022-09-15T05:33:37.724Z,57.10
2022-09-15T05:36:06.052Z,57.41
2022-09-15T05:38:34.559Z,57.74
2022-09-15T05:41:07.389Z,58.35
2022-09-15T05:43:36.751Z,58.77
2022-09-15T05:46:05.120Z,59.08
2022-09-15T05:48:33.687Z,59.73
2022-09-15T05:51:02.413Z,59.94
2022-09-15T05:53:33.095Z,60.48
2022-09-15T05:56:03.097Z,60.68
2022-09-15T05:58:31.752Z,60.98
2022-09-15T06:01:08.029Z,61.48
2022-09-15T06:03:36.069Z,61.66
2022-09-15T06:06:04.967Z,61.91
2022-09-15T06:08:34.181Z,62.03
2022-09-15T06:11:05.472Z,62.29
2022-09-15T06:13:33.473Z,62.53
2022-09-15T06:16:02.062Z,62.61
2022-09-15T06:18:30.439Z,62.50
2022-09-15T06:21:02.399Z,62.64
2022-09-15T06:23:30.636Z,62.86
2022-09-15T06:26:04.225Z,63.41
2022-09-15T06:28:33.032Z,63.88
2022-09-15T06:31:01.216Z,63.84
2022-09-15T06:33:29.331Z,64.21
2022-09-15T06:36:00.095Z,64.59
2022-09-15T06:38:28.103Z,64.91
2022-09-15T06:40:57.058Z,65.15
2022-09-15T06:43:25.438Z,65.18
2022-09-15T06:45:53.645Z,65.20
2022-09-15T06:48:24.955Z,65.25
2022-09-15T06:50:55.518Z,65.39
2022-09-15T06:53:23.696Z,65.36
2022-09-15T06:55:51.748Z,65.70
2022-09-15T06:58:19.819Z,65.80
2022-09-15T07:00:47.697Z,65.71
2022-09-15T07:03:15.818Z,65.65
2022-09-15T07:05:44.212Z,65.93
2022-09-15T07:08:12.333Z,66.18
2022-09-15T07:10:42.655Z,66.10
2022-09-15T07:13:10.723Z,66.48
2022-09-15T07:15:39.352Z,66.61
2022-09-15T07:18:07.312Z,66.54
2022-09-15T07:20:38.310Z,66.64
2022-09-15T07:23:06.138Z,66.85
2022-09-15T07:25:34.409Z,66.66
2022-09-15T07:28:02.408Z,66.41
2022-09-15T07:30:30.198Z,66.51
2022-09-15T07:32:58.473Z,66.43
2022-09-15T07:35:26.242Z,66.25
2022-09-15T07:37:54.420Z,66.43
2022-09-15T07:40:23.218Z,66.71
2022-09-15T07:42:51.171Z,67.14
2022-09-15T07:45:19.306Z,67.38
2022-09-15T07:47:47.236Z,67.31
2022-09-15T07:50:15.439Z,67.51
2022-09-15T07:52:43.531Z,67.23
2022-09-15T07:55:11.694Z,67.13
2022-09-15T07:57:39.472Z,67.11
2022-09-15T08:00:07.785Z,66.99
2022-09-15T08:02:39.906Z,66.62
2022-09-15T08:05:08.053Z,66.21
2022-09-15T08:07:36.058Z,65.66
2022-09-15T08:10:04.025Z,65.05
2022-09-15T08:12:31.764Z,64.31
2022-09-15T08:14:59.576Z,63.62
2022-09-15T08:17:27.392Z,63.42
2022-09-15T08:19:55.423Z,62.89
2022-09-15T08:22:23.580Z,62.41
2022-09-15T08:24:52.206Z,62.38
2022-09-15T08:27:20.269Z,62.48
2022-09-15T08:29:48.553Z,62.31
2022-09-15T08:32:16.679Z,61.64
2022-09-15T08:34:44.692Z,61.43
2022-09-15T08:37:13.436Z,61.35
2022-09-15T08:39:41.727Z,61.67
2022-09-15T08:42:14.209Z,62.00
2022-09-15T08:44:48.692Z,61.75
2022-09-15T08:47:16.580Z,60.74
2022-09-15T08:49:52.670Z,60.43
2022-09-15T08:52:32.714Z,59.76
2022-09-15T08:55:03.520Z,59.37
2022-09-15T08:57:31.470Z,59.03
2022-09-15T08:59:59.773Z,58.51
2022-09-15T09:02:38.320Z,58.45
2022-09-15T09:05:30.446Z,58.23
2022-09-15T09:08:17.351Z,58.03
2022-09-15T09:11:03.911Z,58.34
2022-09-15T09:13:45.964Z,58.56
2022-09-15T09:16:14.184Z,58.54
2022-09-15T09:18:47.322Z,58.70
2022-09-15T09:21:22.458Z,58.51
2022-09-15T09:23:58.280Z,58.44
2022-09-15T09:26:28.368Z,58.49
2022-09-15T09:28:59.099Z,58.27
2022-09-15T09:31:27.970Z,58.04
2022-09-15T09:34:04.718Z,57.49
2022-09-15T09:36:33.490Z,56.59
2022-09-15T09:39:02.385Z,56.38
2022-09-15T09:41:36.412Z,56.28
2022-09-15T09:44:07.119Z,56.39
2022-09-15T09:46:35.261Z,56.59
2022-09-15T09:49:16.884Z,56.60
2022-09-15T09:51:55.648Z,56.53
2022-09-15T09:54:27.468Z,56.13
2022-09-15T09:56:56.894Z,55.54
2022-09-15T09:59:32.761Z,55.31
2022-09-15T10:02:05.019Z,55.15
2022-09-15T10:04:33.258Z,56.01
2022-09-15T10:07:01.288Z,56.25
2022-09-15T10:09:33.252Z,56.48
2022-09-15T10:12:02.192Z,56.68
2022-09-15T10:14:38.161Z,56.88
2022-09-15T10:17:06.082Z,56.88
2022-09-15T10:19:44.112Z,56.93
2022-09-15T10:22:21.797Z,56.72
2022-09-15T10:24:50.685Z,56.60
2022-09-15T10:27:18.484Z,56.60
2022-09-15T10:29:47.017Z,56.09
2022-09-15T10:32:25.541Z,56.18
2022-09-15T10:35:16.712Z,55.79
2022-09-15T10:38:03.419Z,55.24
2022-09-15T10:40:31.553Z,55.28
2022-09-15T10:43:17.921Z,55.58
2022-09-15T10:45:51.366Z,54.92
2022-09-15T10:48:37.864Z,54.63
2022-09-15T10:51:28.937Z,54.36
2022-09-15T10:54:15.188Z,54.74
2022-09-15T10:56:52.103Z,54.07
2022-09-15T10:59:43.470Z,54.03
2022-09-15T11:02:25.760Z,53.50
2022-09-15T11:04:59.493Z,53.27
2022-09-15T11:07:36.084Z,52.82
2022-09-15T11:10:15.896Z,52.38
2022-09-15T11:12:52.959Z,52.01
2022-09-15T11:15:39.008Z,51.60
2022-09-15T11:18:10.236Z,52.21
2022-09-15T11:20:41.067Z,52.31
2022-09-15T11:23:18.676Z,52.28
2022-09-15T11:25:53.339Z,52.06
2022-09-15T11:28:30.908Z,51.99
2022-09-15T11:31:02.413Z,51.95
2022-09-15T11:33:38.054Z,51.99
2022-09-15T11:36:11.761Z,51.76
2022-09-15T11:38:48.385Z,52.13
2022-09-15T11:41:26.425Z,52.51
2022-09-15T11:43:59.866Z,52.44
2022-09-15T11:46:43.391Z,52.71
2022-09-15T11:49:16.545Z,52.89
2022-09-15T11:51:51.146Z,53.14
2022-09-15T11:54:24.094Z,53.25
2022-09-15T11:56:52.658Z,53.47
2022-09-15T11:59:23.378Z,53.75
2022-09-15T12:01:57.498Z,53.78
2022-09-15T12:04:54.494Z,53.76
2022-09-15T12:07:29.097Z,53.80
2022-09-15T12:10:04.374Z,53.89
2022-09-15T12:12:33.540Z,53.60
2022-09-15T12:15:02.243Z,53.56
2022-09-15T12:17:35.830Z,53.41
2022-09-15T12:20:14.085Z,52.89
2022-09-15T12:22:46.939Z,52.93
2022-09-15T12:25:16.913Z,53.05
2022-09-15T12:28:05.145Z,52.48
2022-09-15T12:30:40.526Z,51.53
2022-09-15T12:33:43.315Z,51.17
2022-09-15T12:36:29.732Z,51.11
2022-09-15T12:38:58.683Z,50.71
2022-09-15T12:41:27.270Z,49.95
2022-09-15T12:43:56.104Z,50.14
2022-09-15T12:46:25.410Z,49.82
2022-09-15T12:48:57.959Z,49.42
2022-09-15T12:51:28.197Z,48.91
2022-09-15T12:53:58.341Z,48.70
2022-09-15T12:56:27.553Z,48.45
2022-09-15T12:58:55.989Z,48.75
2022-09-15T13:01:24.564Z,48.42
2022-09-15T13:03:57.652Z,48.18
2022-09-15T13:06:26.998Z,48.23
2022-09-15T13:09:14.740Z,47.98
2022-09-15T13:11:45.989Z,47.84
2022-09-15T13:14:19.553Z,48.26
2022-09-15T13:16:53.975Z,48.33
2022-09-15T13:19:33.613Z,48.70
2022-09-15T13:22:20.763Z,48.78
2022-09-15T13:25:01.764Z,48.94
2022-09-15T13:27:35.720Z,49.19
2022-09-15T13:30:03.857Z,49.65
2022-09-15T13:32:34.584Z,49.90
2022-09-15T13:35:18.172Z,49.86
2022-09-15T13:38:13.537Z,50.15
2022-09-15T13:40:41.778Z,50.33
2022-09-15T13:43:22.076Z,50.62
2022-09-15T13:45:52.935Z,50.58
2022-09-15T13:48:31.206Z,50.36
2022-09-15T13:51:00.545Z,50.29
2022-09-15T13:53:43.047Z,50.47
2022-09-15T13:56:19.361Z,50.18
2022-09-15T13:59:01.198Z,50.28
2022-09-15T14:01:34.389Z,50.19
2022-09-15T14:04:05.139Z,50.12
2022-09-15T14:06:33.785Z,50.23
2022-09-15T14:09:04.587Z,50.39
2022-09-15T14:11:33.564Z,50.00
2022-09-15T14:14:01.644Z,49.94
2022-09-15T14:16:36.628Z,49.92
2022-09-15T14:19:24.595Z,49.79
2022-09-15T14:21:56.233Z,49.52
2022-09-15T14:24:28.462Z,49.15
2022-09-15T14:27:01.787Z,49.17
2022-09-15T14:29:30.843Z,49.18
2022-09-15T14:32:02.348Z,49.12
2022-09-15T14:34:32.186Z,49.31
2022-09-15T14:37:07.694Z,49.27
2022-09-15T14:39:37.731Z,49.18
2022-09-15T14:42:21.714Z,49.27
2022-09-15T14:47:39.853Z,48.83
2022-09-15T14:50:10.943Z,48.93
2022-09-15T14:53:03.071Z,48.71
2022-09-15T14:55:38.574Z,48.78
2022-09-15T14:58:16.136Z,48.78
2022-09-15T15:00:59.279Z,48.63
2022-09-15T15:03:47.622Z,48.31
2022-09-15T15:06:34.067Z,48.34
2022-09-15T15:09:21.364Z,48.24
2022-09-15T15:11:54.984Z,48.14
2022-09-15T15:17:00.340Z,48.39
2022-09-15T15:19:31.218Z,48.58
2022-09-15T15:22:08.736Z,48.94
2022-09-15T15:24:40.024Z,49.24
2022-09-15T15:27:27.002Z,49.47
2022-09-15T15:29:55.042Z,49.45
2022-09-15T15:32:27.841Z,49.28
2022-09-15T15:34:59.884Z,49.27
2022-09-15T15:37:29.514Z,49.30
2022-09-15T15:39:58.908Z,49.34
2022-09-15T15:42:28.885Z,49.41
2022-09-15T15:45:03.208Z,49.54
2022-09-15T15:47:32.529Z,49.68
2022-09-15T15:50:13.739Z,49.93
2022-09-15T15:52:43.825Z,50.39
2022-09-15T15:55:19.529Z,50.75
2022-09-15T15:57:50.272Z,50.92
2022-09-15T16:00:22.195Z,50.86
2022-09-15T16:02:54.095Z,51.05
2022-09-15T16:05:26.265Z,51.14
2022-09-15T16:07:55.071Z,51.17
2022-09-15T16:10:24.263Z,51.32
2022-09-15T16:12:52.109Z,51.34
2022-09-15T16:15:21.153Z,51.71
2022-09-15T16:17:49.197Z,52.83
2022-09-15T16:20:19.791Z,55.05
2022-09-15T16:22:47.796Z,55.99
2022-09-15T16:25:18.242Z,56.41
2022-09-15T16:27:46.403Z,57.37
2022-09-15T16:30:14.462Z,57.74
2022-09-15T16:32:42.627Z,58.25
2022-09-15T16:35:29.029Z,59.13
2022-09-15T16:37:56.910Z,59.46
2022-09-15T16:40:24.725Z,59.82
2022-09-15T16:42:53.303Z,59.92
2022-09-15T16:45:27.513Z,60.51
2022-09-15T16:47:55.875Z,61.06
2022-09-15T16:50:23.844Z,61.02
2022-09-15T16:52:52.227Z,61.17
2022-09-15T16:55:35.979Z,61.63
2022-09-15T16:58:04.555Z,62.22
2022-09-15T17:00:34.678Z,62.86
2022-09-15T17:03:03.157Z,62.79
2022-09-15T17:05:34.995Z,62.83
2022-09-15T17:08:03.679Z,63.12
2022-09-15T17:10:31.685Z,63.00
2022-09-15T17:13:01.119Z,63.01
2022-09-15T17:15:30.464Z,63.14
2022-09-15T17:17:58.309Z,63.41
2022-09-15T17:20:26.445Z,63.29
2022-09-15T17:22:54.886Z,63.51
2022-09-15T17:25:29.225Z,63.79
2022-09-15T17:27:58.045Z,63.67
2022-09-15T17:30:27.390Z,64.11
2022-09-15T17:33:02.096Z,63.97
2022-09-15T17:35:32.352Z,63.73
2022-09-15T17:38:00.104Z,63.77
2022-09-15T17:40:28.536Z,63.93
2022-09-15T17:42:56.794Z,63.97
2022-09-15T17:45:26.023Z,64.37
2022-09-15T17:47:54.313Z,64.66
2022-09-15T17:50:23.342Z,64.47
2022-09-15T17:52:51.530Z,64.93
2022-09-15T17:55:21.695Z,65.35
2022-09-15T17:57:50.122Z,65.07
2022-09-15T18:00:19.233Z,65.06
2022-09-15T18:03:10.201Z,65.03
2022-09-15T18:05:38.521Z,64.86
2022-09-15T18:08:06.548Z,64.73
2022-09-15T18:10:35.678Z,64.60
2022-09-15T18:13:04.860Z,64.84
2022-09-15T18:15:34.472Z,65.19
2022-09-15T18:18:04.407Z,65.15
2022-09-15T18:20:33.341Z,65.25
2022-09-15T18:23:01.242Z,65.78
2022-09-15T18:25:31.057Z,66.25
2022-09-15T18:27:59.515Z,66.69
2022-09-15T18:30:29.253Z,67.08
2022-09-15T18:32:57.994Z,67.54
2022-09-15T18:35:26.514Z,67.93
2022-09-15T18:37:56.289Z,68.67
2022-09-15T18:40:24.987Z,68.56
2022-09-15T18:42:53.266Z,68.26
2022-09-15T18:45:21.358Z,68.00
2022-09-15T18:47:50.925Z,67.90
2022-09-15T18:50:20.297Z,68.09
2022-09-15T18:52:48.305Z,67.89
2022-09-15T18:55:18.270Z,67.83
2022-09-15T18:57:47.225Z,67.86
2022-09-15T19:00:16.931Z,67.70
2022-09-15T19:02:44.941Z,67.53
2022-09-15T19:05:15.891Z,67.39
2022-09-15T19:07:44.700Z,67.28
2022-09-15T19:10:13.988Z,67.20
2022-09-15T19:12:42.104Z,67.25
2022-09-15T19:15:11.264Z,67.05
2022-09-15T19:17:40.438Z,67.23
2022-09-15T19:20:09.502Z,67.39
2022-09-15T19:22:38.105Z,67.32
2022-09-15T19:25:06.580Z,67.33
2022-09-15T19:27:34.995Z,67.30
2022-09-15T19:30:02.907Z,67.25
2022-09-15T19:32:32.479Z,67.34
2022-09-15T19:35:00.455Z,67.20
2022-09-15T19:37:28.216Z,67.17
2022-09-15T19:39:56.532Z,67.09
2022-09-15T19:42:24.993Z,67.26
2022-09-15T19:44:52.805Z,67.19
2022-09-15T19:47:20.462Z,67.31
2022-09-15T19:49:50.954Z,67.61
2022-09-15T19:52:19.106Z,67.68
2022-09-15T19:54:47.959Z,67.50
2022-09-15T19:57:15.606Z,67.48
2022-09-15T19:59:44.992Z,67.74
2022-09-15T20:02:13.565Z,67.91
2022-09-15T20:04:42.429Z,67.87
2022-09-15T20:07:10.492Z,67.97
2022-09-15T20:09:38.335Z,68.17
2022-09-15T20:12:06.590Z,67.97
2022-09-15T20:14:34.361Z,67.97
2022-09-15T20:17:02.224Z,67.98
2022-09-15T20:19:30.232Z,67.87
2022-09-15T20:21:58.357Z,67.80
2022-09-15T20:24:26.268Z,67.64
2022-09-15T20:26:54.287Z,67.77
2022-09-15T20:29:23.237Z,67.87
2022-09-15T20:31:51.482Z,67.95
2022-09-15T20:34:19.473Z,68.10
2022-09-15T20:36:47.300Z,68.13
2022-09-15T20:39:15.704Z,68.03
2022-09-15T20:41:46.741Z,68.04
2022-09-15T20:44:29.584Z,68.01
2022-09-15T20:46:57.318Z,68.01
2022-09-15T20:49:25.152Z,68.28
2022-09-15T20:51:53.204Z,68.30
2022-09-15T20:54:21.189Z,68.45
2022-09-15T20:56:49.166Z,68.33
2022-09-15T20:59:16.895Z,68.16
2022-09-15T21:01:45.032Z,68.18
2022-09-15T21:04:13.204Z,68.29
2022-09-15T21:06:41.189Z,68.30
2022-09-15T21:09:09.384Z,68.12
2022-09-15T21:11:37.326Z,68.20
2022-09-15T21:14:05.819Z,68.20
2022-09-15T21:16:34.950Z,68.37
2022-09-15T21:19:03.246Z,68.40
2022-09-15T21:21:32.208Z,68.63
2022-09-15T21:24:04.517Z,68.69
2022-09-15T21:26:34.016Z,68.82
2022-09-15T21:29:02.164Z,69.12
2022-09-15T21:31:30.922Z,69.09
2022-09-15T21:33:59.506Z,69.20
2022-09-15T21:36:29.687Z,69.44
2022-09-15T21:38:58.790Z,69.12
2022-09-15T21:41:30.120Z,69.29
2022-09-15T21:43:59.364Z,69.51
2022-09-15T21:46:28.163Z,69.55
2022-09-15T21:48:56.676Z,69.58
2022-09-15T21:51:25.451Z,69.56
2022-09-15T21:53:54.760Z,69.73
2022-09-15T21:56:23.118Z,69.63
2022-09-15T21:58:51.028Z,69.84
2022-09-15T22:01:23.662Z,69.72
2022-09-15T22:04:01.776Z,69.64
2022-09-15T22:06:32.026Z,69.72
2022-09-15T22:09:05.016Z,69.56
2022-09-15T22:11:33.800Z,69.71
2022-09-15T22:14:03.240Z,69.42
2022-09-15T22:16:31.061Z,69.36
2022-09-15T22:18:59.926Z,69.43
2022-09-15T22:21:29.054Z,69.34
2022-09-15T22:23:57.734Z,69.46
2022-09-15T22:26:27.429Z,69.62
2022-09-15T22:28:56.126Z,69.74
2022-09-15T22:31:24.712Z,69.54
2022-09-15T22:33:53.160Z,69.73
2022-09-15T22:36:26.594Z,70.01
2022-09-15T22:39:03.714Z,70.00
2022-09-15T22:41:32.894Z,69.93
2022-09-15T22:44:01.067Z,70.17
2022-09-15T22:46:28.864Z,70.14
2022-09-15T22:48:56.727Z,70.22
2022-09-15T22:51:24.678Z,70.09
2022-09-15T22:53:54.284Z,69.99
2022-09-15T22:56:22.459Z,70.01
2022-09-15T22:58:50.726Z,70.19
2022-09-15T23:01:20.296Z,69.98
2022-09-15T23:03:51.950Z,70.05
2022-09-15T23:06:20.203Z,70.26
2022-09-15T23:08:51.903Z,70.53
2022-09-15T23:11:19.986Z,70.56
2022-09-15T23:13:48.234Z,70.65
2022-09-15T23:16:17.005Z,70.73
2022-09-15T23:18:46.128Z,70.65
2022-09-15T23:21:14.294Z,70.71
2022-09-15T23:23:43.326Z,70.82
2022-09-15T23:26:12.384Z,70.93
2022-09-15T23:28:40.494Z,71.06
2022-09-15T23:31:10.294Z,71.07
2022-09-15T23:33:38.746Z,71.12
2022-09-15T23:36:07.930Z,71.11
2022-09-15T23:38:36.998Z,71.22
2022-09-15T23:41:05.497Z,71.31
2022-09-15T23:43:33.355Z,71.24
2022-09-15T23:46:01.740Z,71.46
2022-09-15T23:48:31.592Z,71.53
2022-09-15T23:50:59.587Z,71.75
2022-09-15T23:53:27.554Z,71.72
2022-09-15T23:55:55.293Z,71.83
2022-09-15T23:58:23.146Z,71.63
